Time;durP1;ratioP1;P1;durP2;ratioP2;P2;SDS_P1;SDS_P2;PMS_P1;PMS_P2;Temp;Humidity;BMP_temperature;BMP_pressure;BME280_temperature;BME280_humidity;BME280_pressure;Samples;Min_cycle;Max_cycle;Signal;HPM_P1;HPM_P2
2022/04/29 00:00:03;;;;;;;;;;;;;;;;;;5075083;28;28390;-88
2022/04/29 00:02:28;;;;;;;;;;;;;;;;;;5075305;28;29122;-88
2022/04/29 00:04:53;;;;;;;;;;;;;;;;;;5075313;28;28454;-88
2022/04/29 00:07:19;;;;;;;;;;;;;;;;;;5075510;28;28491;-88
2022/04/29 00:09:44;;;;;;;;;;;;;;;;;;5075425;28;28338;-89
2022/04/29 00:12:09;;;;;;;;;;;;;;;;;;5075236;28;28443;-87
2022/04/29 00:14:34;;;;;;;;;;;;;;;;;;5075285;28;28356;-88
2022/04/29 00:16:59;;;;;;;;;;;;;;;;;;5074811;28;28418;-86
2022/04/29 00:19:24;;;;;;;;;;;;;;;;;;5075357;28;28438;-89
2022/04/29 00:21:49;;;;;;;;;;;;;;;;;;5075230;28;28541;-88
2022/04/29 00:24:14;;;;;;;;;;;;;;;;;;5074967;28;28383;-87
2022/04/29 00:26:39;;;;;;;;;;;;;;;;;;5074885;28;28384;-88
2022/04/29 00:29:05;;;;;;;;;;;;;;;;;;5075097;28;28482;-88
2022/04/29 00:31:30;;;;;;;;;;;;;;;;;;5074925;28;28424;-89
2022/04/29 00:33:55;;;;;;;;;;;;;;;;;;5073693;28;27927;-88
2022/04/29 00:36:20;;;;;;;;;;;;;;;;;;5074992;28;27764;-88
2022/04/29 00:38:45;;;;;;;;;;;;;;;;;;5072314;28;28399;-87
2022/04/29 00:41:10;;;;;;;;;;;;;;;;;;5074599;28;28408;-87
2022/04/29 00:43:35;;;;;;;;;;;;;;;;;;5074967;28;28569;-87
2022/04/29 00:46:00;;;;;;;;;;;;;;;;;;5075103;28;28422;-89
2022/04/29 00:48:25;;;;;;;;;;;;;;;;;;5074836;28;28359;-89
2022/04/29 00:50:51;;;;;;;;;;;;;;;;;;5074540;28;28413;-88
2022/04/29 00:53:16;;;;;;;;;;;;;;;;;;5075024;28;28284;-89
2022/04/29 00:55:41;;;;;;;;;;;;;;;;;;5074651;28;28288;-91
2022/04/29 00:58:06;;;;;;;;;;;;;;;;;;5075095;28;28581;-88
2022/04/29 01:00:32;;;;;;;;;;;;;;;;;;5074745;28;28295;-88
2022/04/29 01:02:57;;;;;;;;;;;;;;;;;;5074467;28;28388;-89
2022/04/29 01:05:22;;;;;;;;;;;;;;;;;;5074627;28;28385;-88
2022/04/29 01:07:47;;;;;;;;;;;;;;;;;;5074732;28;28216;-88
2022/04/29 01:10:12;;;;;;;;;;;;;;;;;;5074662;28;29133;-88
2022/04/29 01:12:37;;;;;;;;;;;;;;;;;;5078088;28;28233;-87
2022/04/29 01:15:02;;;;;;;;;;;;;;;;;;5077816;28;28374;-89
2022/04/29 01:17:30;;;;;;;;;;;;;;;;;;5078248;28;28313;-88
2022/04/29 01:19:55;;;;;;;;;;;;;;;;;;5077769;28;28986;-88
2022/04/29 01:22:20;;;;;;;;;;;;;;;;;;5074908;28;28435;-88
2022/04/29 01:24:45;;;;;;;;;;;;;;;;;;5078149;28;27837;-88
2022/04/29 01:27:10;;;;;;;;;;;;;;;;;;5077913;28;27732;-87
2022/04/29 01:29:35;;;;;;;;;;;;;;;;;;5077779;28;28514;-87
2022/04/29 01:32:00;;;;;;;;;;;;;;;;;;5077611;28;28284;-89
2022/04/29 01:34:25;;;;;;;;;;;;;;;;;;5077796;28;28293;-87
2022/04/29 01:36:50;;;;;;;;;;;;;;;;;;5076291;28;28724;-88
2022/04/29 01:39:16;;;;;;;;;;;;;;;;;;5076590;28;28412;-87
2022/04/29 01:41:41;;;;;;;;;;;;;;;;;;5076996;28;28359;-88
2022/04/29 01:44:06;;;;;;;;;;;;;;;;;;5077152;28;28855;-87
2022/04/29 01:46:31;;;;;;;;;;;;;;;;;;5077003;28;28471;-87
2022/04/29 01:48:56;;;;;;;;;;;;;;;;;;5076026;28;29301;-87
2022/04/29 01:51:21;;;;;;;;;;;;;;;;;;5076891;28;28399;-87
2022/04/29 01:53:53;;;;;;;;;;;;;;;;;;5076766;28;28481;-87
2022/04/29 01:56:18;;;;;;;;;;;;;;;;;;5076980;28;28442;-88
2022/04/29 01:58:43;;;;;;;;;;;;;;;;;;5076732;28;29260;-87
2022/04/29 02:01:09;;;;;;;;;;;;;;;;;;5076336;28;28490;-89
2022/04/29 02:03:34;;;;;;;;;;;;;;;;;;5076990;28;27841;-88
2022/04/29 02:05:59;;;;;;;;;;;;;;;;;;5077396;28;27888;-88
2022/04/29 02:08:24;;;;;;;;;;;;;;;;;;5077029;28;28400;-88
2022/04/29 02:10:50;;;;;;;;;;;;;;;;;;5077122;28;28430;-88
2022/04/29 02:13:16;;;;;;;;;;;;;;;;;;5076856;28;28442;-89
2022/04/29 02:15:41;;;;;;;;;;;;;;;;;;5077128;28;28335;-89
2022/04/29 02:18:07;;;;;;;;;;;;;;;;;;5076985;28;28403;-88
2022/04/29 02:20:32;;;;;;;;;;;;;;;;;;5076735;28;27863;-89
2022/04/29 02:22:57;;;;;;;;;;;;;;;;;;5076555;28;28320;-88
2022/04/29 02:25:23;;;;;;;;;;;;;;;;;;5077258;28;28435;-87
2022/04/29 02:27:48;;;;;;;;;;;;;;;;;;5076607;28;28550;-89
2022/04/29 02:30:13;;;;;;;;;;;;;;;;;;5076858;28;28336;-88
2022/04/29 02:32:38;;;;;;;;;;;;;;;;;;5076828;28;28401;-88
2022/04/29 02:35:03;;;;;;;;;;;;;;;;;;5076642;28;28377;-88
2022/04/29 02:37:28;;;;;;;;;;;;;;;;;;5076443;28;28653;-89
2022/04/29 02:39:53;;;;;;;;;;;;;;;;;;5076563;28;28354;-89
2022/04/29 02:42:19;;;;;;;;;;;;;;;;;;5076821;28;28411;-89
2022/04/29 02:44:44;;;;;;;;;;;;;;;;;;5076545;28;28348;-90
2022/04/29 02:47:09;;;;;;;;;;;;;;;;;;5076586;28;29234;-89
2022/04/29 02:49:34;;;;;;;;;;;;;;;;;;5076281;28;28407;-89
2022/04/29 02:51:59;;;;;;;;;;;;;;;;;;5076398;28;28433;-87
2022/04/29 02:54:24;;;;;;;;;;;;;;;;;;5076835;28;28367;-87
2022/04/29 02:56:50;;;;;;;;;;;;;;;;;;5074837;28;29547;-88
2022/04/29 02:59:15;;;;;;;;;;;;;;;;;;5060681;28;28411;-87
2022/04/29 03:01:40;;;;;;;;;;;;;;;;;;5076054;28;28497;-88
2022/04/29 03:04:05;;;;;;;;;;;;;;;;;;5076017;28;28434;-89
2022/04/29 03:06:30;;;;;;;;;;;;;;;;;;5076322;28;29169;-87
2022/04/29 03:08:56;;;;;;;;;;;;;;;;;;5075827;28;28312;-87
2022/04/29 03:11:22;;;;;;;;;;;;;;;;;;5076335;28;27782;-88
2022/04/29 03:13:47;;;;;;;;;;;;;;;;;;5076318;28;28320;-88
2022/04/29 03:16:13;;;;;;;;;;;;;;;;;;5075490;28;28237;-87
2022/04/29 03:18:40;;;;;;;;;;;;;;;;;;5075942;28;28312;-87
2022/04/29 03:21:05;;;;;;;;;;;;;;;;;;5076182;28;28584;-87
2022/04/29 03:23:30;;;;;;;;;;;;;;;;;;5075978;28;28552;-88
2022/04/29 03:25:55;;;;;;;;;;;;;;;;;;5075836;28;29809;-87
2022/04/29 03:28:20;;;;;;;;;;;;;;;;;;5075814;28;28384;-88
2022/04/29 03:30:45;;;;;;;;;;;;;;;;;;5076050;28;28530;-88
2022/04/29 03:33:11;;;;;;;;;;;;;;;;;;5075010;28;28229;-87
2022/04/29 03:35:36;;;;;;;;;;;;;;;;;;5057521;28;30258;-87
2022/04/29 03:38:02;;;;;;;;;;;;;;;;;;5057518;28;28344;-88
2022/04/29 03:40:27;;;;;;;;;;;;;;;;;;5075677;28;28475;-88
2022/04/29 03:42:52;;;;;;;;;;;;;;;;;;5075786;28;28350;-87
2022/04/29 03:45:17;;;;;;;;;;;;;;;;;;5075630;28;28664;-88
2022/04/29 03:47:42;;;;;;;;;;;;;;;;;;5075369;28;28310;-87
2022/04/29 03:50:07;;;;;;;;;;;;;;;;;;5075526;28;28335;-87
2022/04/29 03:52:32;;;;;;;;;;;;;;;;;;5075576;28;28317;-87
2022/04/29 03:54:57;;;;;;;;;;;;;;;;;;5075216;28;29134;-88
2022/04/29 03:57:22;;;;;;;;;;;;;;;;;;5074933;28;28412;-87
2022/04/29 03:59:49;;;;;;;;;;;;;;;;;;5075687;28;28378;-87
2022/04/29 04:02:14;;;;;;;;;;;;;;;;;;5074992;28;28416;-88
2022/04/29 04:04:39;;;;;;;;;;;;;;;;;;5074675;28;28593;-87
2022/04/29 04:07:04;;;;;;;;;;;;;;;;;;5075242;28;28394;-87
2022/04/29 04:09:29;;;;;;;;;;;;;;;;;;5075392;28;28493;-86
2022/04/29 04:11:54;;;;;;;;;;;;;;;;;;5075634;28;28315;-87
2022/04/29 04:14:19;;;;;;;;;;;;;;;;;;5074931;28;29435;-87
2022/04/29 04:16:44;;;;;;;;;;;;;;;;;;5075142;28;28450;-87
2022/04/29 04:19:09;;;;;;;;;;;;;;;;;;5074839;28;28524;-87
2022/04/29 04:21:35;;;;;;;;;;;;;;;;;;5075352;28;28347;-86
2022/04/29 04:24:00;;;;;;;;;;;;;;;;;;5075224;28;28666;-87
2022/04/29 04:26:25;;;;;;;;;;;;;;;;;;5074998;28;28344;-87
2022/04/29 04:28:50;;;;;;;;;;;;;;;;;;5075067;28;28341;-87
2022/04/29 04:31:15;;;;;;;;;;;;;;;;;;5075155;28;28379;-88
2022/04/29 04:33:40;;;;;;;;;;;;;;;;;;5074709;28;28644;-87
2022/04/29 04:36:05;;;;;;;;;;;;;;;;;;5074863;28;28401;-88
2022/04/29 04:38:30;;;;;;;;;;;;;;;;;;5074949;28;28388;-88
2022/04/29 04:40:56;;;;;;;;;;;;;;;;;;5075053;28;28437;-88
2022/04/29 04:43:21;;;;;;;;;;;;;;;;;;5074342;28;28424;-88
2022/04/29 04:45:47;;;;;;;;;;;;;;;;;;5077743;28;28245;-88
2022/04/29 04:48:12;;;;;;;;;;;;;;;;;;5078256;28;28390;-88
2022/04/29 04:50:37;;;;;;;;;;;;;;;;;;5078490;28;28583;-87
2022/04/29 04:53:02;;;;;;;;;;;;;;;;;;5078305;28;28492;-88
2022/04/29 04:55:28;;;;;;;;;;;;;;;;;;5078063;28;28445;-88
2022/04/29 04:57:53;;;;;;;;;;;;;;;;;;5077878;28;28265;-87
2022/04/29 05:00:18;;;;;;;;;;;;;;;;;;5078209;28;28221;-88
2022/04/29 05:02:43;;;;;;;;;;;;;;;;;;5077687;28;28244;-88
2022/04/29 05:05:08;;;;;;;;;;;;;;;;;;5078065;28;28272;-88
2022/04/29 05:07:34;;;;;;;;;;;;;;;;;;5078044;28;28429;-88
2022/04/29 05:09:59;;;;;;;;;;;;;;;;;;5078475;28;28382;-88
2022/04/29 05:12:24;;;;;;;;;;;;;;;;;;5078060;28;28346;-88
2022/04/29 05:14:49;;;;;;;;;;;;;;;;;;5077914;28;28348;-87
2022/04/29 05:17:14;;;;;;;;;;;;;;;;;;5077683;28;28451;-87
2022/04/29 05:19:39;;;;;;;;;;;;;;;;;;5077999;28;28334;-87
2022/04/29 05:22:04;;;;;;;;;;;;;;;;;;5078023;28;28347;-87
2022/04/29 05:24:30;;;;;;;;;;;;;;;;;;5077883;28;28389;-88
2022/04/29 05:26:55;;;;;;;;;;;;;;;;;;5077245;28;28486;-88
2022/04/29 05:29:20;;;;;;;;;;;;;;;;;;5077787;28;28398;-87
2022/04/29 05:31:45;;;;;;;;;;;;;;;;;;5077468;28;28390;-88
2022/04/29 05:34:10;;;;;;;;;;;;;;;;;;5077757;28;28400;-87
2022/04/29 05:36:36;;;;;;;;;;;;;;;;;;5077704;28;27797;-88
2022/04/29 05:44:29;;;;;;;;;;;;;;;;;;5077776;28;28316;-88
2022/04/29 05:46:54;;;;;;;;;;;;;;;;;;5077036;28;28231;-88
2022/04/29 05:49:19;;;;;;;;;;;;;;;;;;5077581;28;28399;-87
2022/04/29 05:51:44;;;;;;;;;;;;;;;;;;5076620;28;28327;-87
2022/04/29 05:54:09;;;;;;;;;;;;;;;;;;5077280;28;28257;-88
2022/04/29 05:56:34;;;;;;;;;;;;;;;;;;5076951;28;28399;-88
2022/04/29 05:58:59;;;;;;;;;;;;;;;;;;5077410;28;35930;-88
2022/04/29 06:01:24;;;;;;;;;;;;;;;;;;5076727;28;28319;-88
2022/04/29 06:03:49;;;;;;;;;;;;;;;;;;5077112;28;28261;-88
2022/04/29 06:06:15;;;;;;;;;;;;;;;;;;5076865;28;28491;-87
2022/04/29 06:08:40;;;;;;;;;;;;;;;;;;5077145;28;28575;-88
2022/04/29 06:11:05;;;;;;;;;;;;;;;;;;5076640;28;29303;-87
2022/04/29 06:13:30;;;;;;;;;;;;;;;;;;5076975;28;27874;-87
2022/04/29 06:15:55;;;;;;;;;;;;;;;;;;5076926;28;28438;-87
2022/04/29 06:18:20;;;;;;;;;;;;;;;;;;5076707;28;28441;-87
2022/04/29 06:20:45;;;;;;;;;;;;;;;;;;5076859;28;28317;-88
2022/04/29 06:23:10;;;;;;;;;;;;;;;;;;5077077;28;31396;-87
2022/04/29 06:25:35;;;;;;;;;;;;;;;;;;5077177;28;28330;-87
2022/04/29 06:28:01;;;;;;;;;;;;;;;;;;5076827;28;28518;-87
2022/04/29 06:30:26;;;;;;;;;;;;;;;;;;5076451;28;28675;-87
2022/04/29 06:32:51;;;;;;;;;;;;;;;;;;5070542;28;28453;-87
2022/04/29 06:35:19;;;;;;;;;;;;;;;;;;5070029;28;28414;-87
2022/04/29 06:37:44;;;;;;;;;;;;;;;;;;5076757;28;28549;-87
2022/04/29 06:40:09;;;;;;;;;;;;;;;;;;5076481;28;29136;-88
2022/04/29 06:42:34;;;;;;;;;;;;;;;;;;5076755;28;28467;-87
2022/04/29 06:44:59;;;;;;;;;;;;;;;;;;5076146;28;28371;-87
2022/04/29 06:47:24;;;;;;;;;;;;;;;;;;5076413;28;28430;-87
2022/04/29 06:49:50;;;;;;;;;;;;;;;;;;5076206;28;28811;-87
2022/04/29 06:52:16;;;;;;;;;;;;;;;;;;5075574;28;29114;-87
2022/04/29 06:54:41;;;;;;;;;;;;;;;;;;5076511;28;28269;-88
2022/04/29 06:57:06;;;;;;;;;;;;;;;;;;5076410;28;28504;-88
2022/04/29 06:59:31;;;;;;;;;;;;;;;;;;5076560;28;28525;-86
2022/04/29 07:01:57;;;;;;;;;;;;;;;;;;5078125;28;28366;-91
2022/04/29 07:04:27;;;;;;;;;;;;;;;;;;5076668;28;28434;-89
2022/04/29 07:06:54;;;;;;;;;;;;;;;;;;5076188;28;28462;-88
2022/04/29 07:09:19;;;;;;;;;;;;;;;;;;5075987;28;29188;-87
2022/04/29 07:11:44;;;;;;;;;;;;;;;;;;5074852;28;28577;-88
2022/04/29 07:14:09;;;;;;;;;;;;;;;;;;5076522;28;28448;-86
2022/04/29 07:16:34;;;;;;;;;;;;;;;;;;5075911;28;28439;-88
2022/04/29 07:18:59;;;;;;;;;;;;;;;;;;5078574;28;28387;-91
2022/04/29 07:21:24;;;;;;;;;;;;;;;;;;5080342;28;28961;-91
2022/04/29 07:23:50;;;;;;;;;;;;;;;;;;5082386;28;28446;-92
2022/04/29 07:26:15;;;;;;;;;;;;;;;;;;5080104;28;28346;-92
2022/04/29 07:28:40;;;;;;;;;;;;;;;;;;5078643;28;28253;-90
2022/04/29 07:31:05;;;;;;;;;;;;;;;;;;5077416;28;27873;-91
2022/04/29 07:33:30;;;;;;;;;;;;;;;;;;5075904;28;27811;-86
2022/04/29 07:44:07;;;;;;;;;;;;;;;;;;5081638;28;28518;-88
2022/04/29 07:46:32;;;;;;;;;;;;;;;;;;5082595;28;28597;-86
2022/04/29 07:48:57;;;;;;;;;;;;;;;;;;5075112;28;29165;-85
2022/04/29 07:51:22;;;;;;;;;;;;;;;;;;5075247;28;28245;-89
2022/04/29 07:53:47;;;;;;;;;;;;;;;;;;5075287;28;28844;-89
2022/04/29 07:56:13;;;;;;;;;;;;;;;;;;5075374;28;28428;-88
2022/04/29 07:58:38;;;;;;;;;;;;;;;;;;5075042;28;29582;-89
2022/04/29 08:01:05;;;;;;;;;;;;;;;;;;5074793;28;28455;-89
2022/04/29 08:03:30;;;;;;;;;;;;;;;;;;5057025;28;28520;-89
2022/04/29 08:05:55;;;;;;;;;;;;;;;;;;5075172;28;28506;-90
2022/04/29 08:08:20;;;;;;;;;;;;;;;;;;5074691;28;29125;-90
2022/04/29 08:10:46;;;;;;;;;;;;;;;;;;5075139;28;28327;-89
2022/04/29 08:13:11;;;;;;;;;;;;;;;;;;5075269;28;28418;-89
2022/04/29 08:15:36;;;;;;;;;;;;;;;;;;5075382;28;27807;-90
2022/04/29 08:18:01;;;;;;;;;;;;;;;;;;5074873;28;28474;-89
2022/04/29 08:20:26;;;;;;;;;;;;;;;;;;5075063;28;28249;-89
2022/04/29 08:22:52;;;;;;;;;;;;;;;;;;5075391;28;28245;-90
2022/04/29 08:25:20;;;;;;;;;;;;;;;;;;5075570;28;28385;-87
2022/04/29 08:27:46;;;;;;;;;;;;;;;;;;5075563;28;29036;-90
2022/04/29 08:30:11;;;;;;;;;;;;;;;;;;5075307;28;28450;-89
2022/04/29 08:32:36;;;;;;;;;;;;;;;;;;5075651;28;28476;-89
2022/04/29 08:35:01;;;;;;;;;;;;;;;;;;5075795;28;28430;-90
2022/04/29 08:37:26;;;;;;;;;;;;;;;;;;5075475;28;28817;-89
2022/04/29 08:39:52;;;;;;;;;;;;;;;;;;5075280;28;28556;-88
2022/04/29 08:42:18;;;;;;;;;;;;;;;;;;5055568;28;28498;-89
2022/04/29 08:44:43;;;;;;;;;;;;;;;;;;5055869;28;28596;-90
2022/04/29 08:47:08;;;;;;;;;;;;;;;;;;5055688;28;28654;-89
2022/04/29 08:49:33;;;;;;;;;;;;;;;;;;5055303;28;28409;-90
2022/04/29 08:52:00;;;;;;;;;;;;;;;;;;5074371;28;28520;-91
2022/04/29 09:00:07;;;;;;;;;;;;;;;;;;4992149;28;28476;-89
2022/04/29 09:02:32;;;;;;;;;;;;;;;;;;4993223;28;28346;-92
2022/04/29 09:04:58;;;;;;;;;;;;;;;;;;4992245;28;28926;-90
2022/04/29 09:07:24;;;;;;;;;;;;;;;;;;4972816;28;28473;-89
2022/04/29 09:09:49;;;;;;;;;;;;;;;;;;4988942;28;28563;-91
2022/04/29 09:12:15;;;;;;;;;;;;;;;;;;4983965;28;28464;-89
2022/04/29 09:14:40;;;;;;;;;;;;;;;;;;4982132;28;28504;-90
2022/04/29 09:17:05;;;;;;;;;;;;;;;;;;4981595;28;28601;-90
2022/04/29 09:19:30;;;;;;;;;;;;;;;;;;4992510;28;28345;-90
2022/04/29 09:21:55;;;;;;;;;;;;;;;;;;4992975;28;28512;-89
2022/04/29 09:24:20;;;;;;;;;;;;;;;;;;4993194;28;27852;-90
2022/04/29 09:26:45;;;;;;;;;;;;;;;;;;4990986;28;28563;-90
2022/04/29 09:29:11;;;;;;;;;;;;;;;;;;4994032;28;28495;-90
2022/04/29 09:31:36;;;;;;;;;;;;;;;;;;4997716;28;28500;-92
2022/04/29 09:34:01;;;;;;;;;;;;;;;;;;5007513;28;28568;-92
2022/04/29 09:36:27;;;;;;;;;;;;;;;;;;5026905;28;28347;-92
2022/04/29 09:41:36;;;;;;;;;;;;;;;;;;5079222;28;28486;-89
2022/04/29 09:44:01;;;;;;;;;;;;;;;;;;5077638;28;28387;-91
2022/04/29 09:46:26;;;;;;;;;;;;;;;;;;5076486;28;28650;-87
2022/04/29 09:48:52;;;;;;;;;;;;;;;;;;5078886;28;28509;-90
2022/04/29 09:51:17;;;;;;;;;;;;;;;;;;5076719;28;28540;-89
2022/04/29 09:53:42;;;;;;;;;;;;;;;;;;5076532;28;28304;-89
2022/04/29 09:56:07;;;;;;;;;;;;;;;;;;5076170;28;28513;-88
2022/04/29 09:58:32;;;;;;;;;;;;;;;;;;5076401;28;28498;-87
2022/04/29 10:00:57;;;;;;;;;;;;;;;;;;5076489;28;28492;-88
2022/04/29 10:03:22;;;;;;;;;;;;;;;;;;5076502;28;28540;-88
2022/04/29 10:05:48;;;;;;;;;;;;;;;;;;5076421;28;29547;-88
2022/04/29 10:08:14;;;;;;;;;;;;;;;;;;5076216;28;28576;-89
2022/04/29 10:10:39;;;;;;;;;;;;;;;;;;5076052;28;28233;-88
2022/04/29 10:13:04;;;;;;;;;;;;;;;;;;5076716;28;28390;-88
2022/04/29 10:15:29;;;;;;;;;;;;;;;;;;5075977;28;29310;-88
2022/04/29 10:23:22;;;;;;;;;;;;;;;;;;5075579;28;28421;-88
2022/04/29 10:25:47;;;;;;;;;;;;;;;;;;5076197;28;28474;-87
2022/04/29 10:28:12;;;;;;;;;;;;;;;;;;5076289;28;28460;-88
2022/04/29 10:30:37;;;;;;;;;;;;;;;;;;5076075;28;28438;-88
2022/04/29 10:33:03;;;;;;;;;;;;;;;;;;5076124;28;28490;-88
2022/04/29 10:35:28;;;;;;;;;;;;;;;;;;5075066;28;28469;-89
2022/04/29 10:37:53;;;;;;;;;;;;;;;;;;5075523;28;28494;-88
2022/04/29 10:40:18;;;;;;;;;;;;;;;;;;5076148;28;28474;-88
2022/04/29 10:42:43;;;;;;;;;;;;;;;;;;5076273;28;28450;-89
2022/04/29 10:45:08;;;;;;;;;;;;;;;;;;5075344;28;28713;-89
2022/04/29 10:47:41;;;;;;;;;;;;;;;;;;5075298;28;28510;-88
2022/04/29 10:50:06;;;;;;;;;;;;;;;;;;5075820;28;28520;-89
2022/04/29 10:52:31;;;;;;;;;;;;;;;;;;5075919;28;28443;-89
2022/04/29 10:54:56;;;;;;;;;;;;;;;;;;5075640;28;28431;-88
2022/04/29 10:57:21;;;;;;;;;;;;;;;;;;5075339;28;28516;-87
2022/04/29 10:59:46;;;;;;;;;;;;;;;;;;5075755;28;28457;-88
2022/04/29 11:02:14;;;;;;;;;;;;;;;;;;5074166;28;28552;-87
2022/04/29 11:04:39;;;;;;;;;;;;;;;;;;5075235;28;28526;-88
2022/04/29 11:07:04;;;;;;;;;;;;;;;;;;5076674;28;28458;-90
2022/04/29 11:09:30;;;;;;;;;;;;;;;;;;5075642;28;28486;-90
2022/04/29 11:11:55;;;;;;;;;;;;;;;;;;5076715;28;28509;-92
2022/04/29 11:14:20;;;;;;;;;;;;;;;;;;5077327;28;28595;-87
2022/04/29 11:16:45;;;;;;;;;;;;;;;;;;5076188;28;27910;-91
2022/04/29 11:19:10;;;;;;;;;;;;;;;;;;5063831;28;28430;-90
2022/04/29 11:27:03;;;;;;;;;;;;;;;;;;5064673;28;27808;-93
2022/04/29 11:29:28;;;;;;;;;;;;;;;;;;5087294;28;28511;-93
2022/04/29 11:31:53;;;;;;;;;;;;;;;;;;5085131;28;28141;-93
2022/04/29 11:34:19;;;;;;;;;;;;;;;;;;5084273;28;28625;-94
2022/04/29 11:36:44;;;;;;;;;;;;;;;;;;5079104;28;28530;-90
2022/04/29 11:39:09;;;;;;;;;;;;;;;;;;5078176;28;28527;-89
2022/04/29 11:41:34;;;;;;;;;;;;;;;;;;5074806;28;28393;-89
2022/04/29 11:44:02;;;;;;;;;;;;;;;;;;5075547;28;28541;-90
2022/04/29 11:46:27;;;;;;;;;;;;;;;;;;5075995;28;28004;-89
2022/04/29 11:48:52;;;;;;;;;;;;;;;;;;5077344;28;28465;-96
2022/04/29 11:51:17;;;;;;;;;;;;;;;;;;5080486;28;28542;-95
2022/04/29 11:53:42;;;;;;;;;;;;;;;;;;5073998;28;28592;-92
2022/04/29 11:56:08;;;;;;;;;;;;;;;;;;5079614;28;28482;-91
2022/04/29 11:58:37;;;;;;;;;;;;;;;;;;5075553;28;28567;-92
2022/04/29 12:01:03;;;;;;;;;;;;;;;;;;5077182;28;28537;-91
2022/04/29 12:03:28;;;;;;;;;;;;;;;;;;5075829;28;28458;-92
2022/04/29 12:05:53;;;;;;;;;;;;;;;;;;5075255;28;28557;-90
2022/04/29 12:08:18;;;;;;;;;;;;;;;;;;5074716;28;28427;-90
2022/04/29 12:10:47;;;;;;;;;;;;;;;;;;5074665;28;28462;-90
2022/04/29 12:13:12;;;;;;;;;;;;;;;;;;5079913;28;29567;-95
2022/04/29 12:15:37;;;;;;;;;;;;;;;;;;5078960;28;28325;-93
2022/04/29 12:18:02;;;;;;;;;;;;;;;;;;5079883;28;27767;-94
2022/04/29 12:20:28;;;;;;;;;;;;;;;;;;5081871;28;28224;-96
2022/04/29 12:22:53;;;;;;;;;;;;;;;;;;5083197;28;28353;-95
2022/04/29 12:25:18;;;;;;;;;;;;;;;;;;5086441;28;28313;-95
2022/04/29 12:27:43;;;;;;;;;;;;;;;;;;5089176;28;27715;-96
2022/04/29 12:35:36;;;;;;;;;;;;;;;;;;5077963;28;28560;-96
2022/04/29 12:38:01;;;;;;;;;;;;;;;;;;5077842;28;27838;-93
2022/04/29 12:40:26;;;;;;;;;;;;;;;;;;5078809;28;28489;-94
2022/04/29 12:42:51;;;;;;;;;;;;;;;;;;5078401;28;28426;-92
2022/04/29 12:45:22;;;;;;;;;;;;;;;;;;5076782;28;28536;-90
2022/04/29 12:47:50;;;;;;;;;;;;;;;;;;5073374;28;28585;-88
2022/04/29 12:50:15;;;;;;;;;;;;;;;;;;5072971;28;28639;-89
2022/04/29 12:52:40;;;;;;;;;;;;;;;;;;5073444;28;28509;-89
2022/04/29 12:55:05;;;;;;;;;;;;;;;;;;5074269;28;28463;-91
2022/04/29 12:57:31;;;;;;;;;;;;;;;;;;5075027;28;28459;-92
2022/04/29 12:59:56;;;;;;;;;;;;;;;;;;5077843;28;28303;-92
2022/04/29 13:02:22;;;;;;;;;;;;;;;;;;5081487;28;28221;-94
2022/04/29 13:04:47;;;;;;;;;;;;;;;;;;5079977;28;28233;-92
2022/04/29 13:07:12;;;;;;;;;;;;;;;;;;5081756;28;27864;-95
2022/04/29 13:09:37;;;;;;;;;;;;;;;;;;5083060;28;28498;-93
2022/04/29 13:12:02;;;;;;;;;;;;;;;;;;5080400;28;28320;-94
2022/04/29 13:14:28;;;;;;;;;;;;;;;;;;5080929;28;28488;-92
2022/04/29 13:16:53;;;;;;;;;;;;;;;;;;5078581;28;28332;-90
2022/04/29 13:19:18;;;;;;;;;;;;;;;;;;5079100;28;28403;-86
2022/04/29 13:21:43;;;;;;;;;;;;;;;;;;5068772;28;28494;-92
2022/04/29 13:24:08;;;;;;;;;;;;;;;;;;5073526;28;28552;-91
2022/04/29 13:26:33;;;;;;;;;;;;;;;;;;5076585;28;28407;-87
2022/04/29 13:28:58;;;;;;;;;;;;;;;;;;5074951;28;28379;-89
2022/04/29 13:31:24;;;;;;;;;;;;;;;;;;5076617;28;28467;-88
2022/04/29 13:33:49;;;;;;;;;;;;;;;;;;5076346;28;28406;-88
2022/04/29 13:36:14;;;;;;;;;;;;;;;;;;5076641;28;28463;-87
2022/04/29 13:38:40;;;;;;;;;;;;;;;;;;5076844;28;27848;-89
2022/04/29 13:41:06;;;;;;;;;;;;;;;;;;5076388;28;28411;-88
2022/04/29 13:43:34;;;;;;;;;;;;;;;;;;5076539;28;28489;-89
2022/04/29 13:45:59;;;;;;;;;;;;;;;;;;5076573;28;28411;-88
2022/04/29 13:48:24;;;;;;;;;;;;;;;;;;5076738;28;28441;-87
2022/04/29 13:50:49;;;;;;;;;;;;;;;;;;5076233;28;29336;-87
2022/04/29 13:53:15;;;;;;;;;;;;;;;;;;5076481;28;28494;-88
2022/04/29 13:55:40;;;;;;;;;;;;;;;;;;5074930;28;28470;-88
2022/04/29 13:58:05;;;;;;;;;;;;;;;;;;5068653;28;28482;-88
2022/04/29 14:00:30;;;;;;;;;;;;;;;;;;5076044;28;28430;-88
2022/04/29 14:02:56;;;;;;;;;;;;;;;;;;5076301;28;28459;-87
2022/04/29 14:05:23;;;;;;;;;;;;;;;;;;5076192;28;28383;-87
2022/04/29 14:07:48;;;;;;;;;;;;;;;;;;5076519;28;28302;-88
2022/04/29 14:10:13;;;;;;;;;;;;;;;;;;5076137;28;28752;-84
2022/04/29 14:12:38;;;;;;;;;;;;;;;;;;5076319;28;28482;-90
2022/04/29 14:15:03;;;;;;;;;;;;;;;;;;5087067;27;28387;-87
2022/04/29 14:17:28;;;;;;;;;;;;;;;;;;5075625;28;28276;-87
2022/04/29 14:19:54;;;;;;;;;;;;;;;;;;5076293;28;28445;-89
2022/04/29 14:22:19;;;;;;;;;;;;;;;;;;5076210;28;28478;-85
2022/04/29 14:24:44;;;;;;;;;;;;;;;;;;5076402;28;28363;-95
2022/04/29 14:27:09;;;;;;;;;;;;;;;;;;5077114;28;27930;-92
2022/04/29 14:29:37;;;;;;;;;;;;;;;;;;5075949;28;28572;-93
2022/04/29 14:32:03;;;;;;;;;;;;;;;;;;5076031;28;28533;-92
2022/04/29 14:34:31;;;;;;;;;;;;;;;;;;5076107;28;28512;-91
2022/04/29 14:36:56;;;;;;;;;;;;;;;;;;5075735;28;28442;-90
2022/04/29 14:39:22;;;;;;;;;;;;;;;;;;5075359;28;28512;-90
2022/04/29 14:41:48;;;;;;;;;;;;;;;;;;5075781;28;28265;-87
2022/04/29 14:44:13;;;;;;;;;;;;;;;;;;5075926;28;28398;-87
2022/04/29 14:46:40;;;;;;;;;;;;;;;;;;5075890;28;28529;-89
2022/04/29 14:49:05;;;;;;;;;;;;;;;;;;5075353;28;28406;-89
2022/04/29 14:51:30;;;;;;;;;;;;;;;;;;5082529;28;28591;-89
2022/04/29 14:53:57;;;;;;;;;;;;;;;;;;5075984;28;27808;-91
2022/04/29 14:56:22;;;;;;;;;;;;;;;;;;5075093;28;28415;-88
2022/04/29 14:58:48;;;;;;;;;;;;;;;;;;5075130;28;28568;-90
2022/04/29 15:01:14;;;;;;;;;;;;;;;;;;5074993;28;28571;-89
2022/04/29 15:03:39;;;;;;;;;;;;;;;;;;5075832;28;28363;-88
2022/04/29 15:06:05;;;;;;;;;;;;;;;;;;5075566;28;28517;-89
2022/04/29 15:08:30;;;;;;;;;;;;;;;;;;5075267;28;28449;-88
2022/04/29 15:16:23;;;;;;;;;;;;;;;;;;5075227;28;28295;-90
2022/04/29 15:18:48;;;;;;;;;;;;;;;;;;5075386;28;28403;-86
2022/04/29 15:21:13;;;;;;;;;;;;;;;;;;5075247;28;27796;-89
2022/04/29 15:23:38;;;;;;;;;;;;;;;;;;5074965;28;28449;-92
2022/04/29 15:26:03;;;;;;;;;;;;;;;;;;5075141;28;28431;-90
2022/04/29 15:28:28;;;;;;;;;;;;;;;;;;5074208;28;28430;-89
2022/04/29 15:30:54;;;;;;;;;;;;;;;;;;5074591;28;28462;-94
2022/04/29 15:33:19;;;;;;;;;;;;;;;;;;5075001;28;29113;-90
2022/04/29 15:35:44;;;;;;;;;;;;;;;;;;5075459;28;28426;-87
2022/04/29 15:38:09;;;;;;;;;;;;;;;;;;5074912;28;28542;-88
2022/04/29 15:40:34;;;;;;;;;;;;;;;;;;5074727;28;28606;-85
2022/04/29 15:42:59;;;;;;;;;;;;;;;;;;5074961;28;28492;-84
2022/04/29 15:45:24;;;;;;;;;;;;;;;;;;5074797;28;28323;-86
2022/04/29 15:47:50;;;;;;;;;;;;;;;;;;5075637;28;29146;-92
2022/04/29 15:50:15;;;;;;;;;;;;;;;;;;5080381;28;28308;-94
2022/04/29 15:52:40;;;;;;;;;;;;;;;;;;5076619;28;28452;-88
2022/04/29 15:55:06;;;;;;;;;;;;;;;;;;5074122;28;28659;-87
2022/04/29 15:57:31;;;;;;;;;;;;;;;;;;5059292;28;28521;-87
2022/04/29 15:59:56;;;;;;;;;;;;;;;;;;5071056;28;28697;-87
2022/04/29 16:02:21;;;;;;;;;;;;;;;;;;5074631;28;28465;-86
2022/04/29 16:04:46;;;;;;;;;;;;;;;;;;5074376;28;28901;-86
2022/04/29 16:07:12;;;;;;;;;;;;;;;;;;5075910;28;34466;-87
2022/04/29 16:09:37;;;;;;;;;;;;;;;;;;5075242;28;28444;-90
2022/04/29 16:12:02;;;;;;;;;;;;;;;;;;5075089;28;28405;-89
2022/04/29 16:14:27;;;;;;;;;;;;;;;;;;5076054;28;28886;-95
2022/04/29 16:16:52;;;;;;;;;;;;;;;;;;5068685;28;30195;-85
2022/04/29 16:22:01;;;;;;;;;;;;;;;;;;5074293;28;28501;-81
2022/04/29 16:27:10;;;;;;;;;;;;;;;;;;5074020;28;28833;-82
2022/04/29 16:29:37;;;;;;;;;;;;;;;;;;5074363;28;28548;-81
2022/04/29 16:32:02;;;;;;;;;;;;;;;;;;5074358;28;28411;-81
2022/04/29 16:34:29;;;;;;;;;;;;;;;;;;5074580;28;27839;-81
2022/04/29 16:36:55;;;;;;;;;;;;;;;;;;5074037;28;28450;-81
2022/04/29 16:39:20;;;;;;;;;;;;;;;;;;5073947;28;28658;-81
2022/04/29 16:41:45;;;;;;;;;;;;;;;;;;5076666;28;28294;-83
2022/04/29 16:44:11;;;;;;;;;;;;;;;;;;5077421;28;28396;-85
2022/04/29 16:46:36;;;;;;;;;;;;;;;;;;5077610;28;28507;-85
2022/04/29 16:49:01;;;;;;;;;;;;;;;;;;5077260;28;28559;-85
2022/04/29 16:51:26;;;;;;;;;;;;;;;;;;5077331;28;28443;-85
2022/04/29 16:53:52;;;;;;;;;;;;;;;;;;5076833;28;28566;-86
2022/04/29 16:56:17;;;;;;;;;;;;;;;;;;5075748;28;29204;-86
2022/04/29 16:58:42;;;;;;;;;;;;;;;;;;5077502;28;28488;-86
2022/04/29 17:01:07;;;;;;;;;;;;;;;;;;5076616;28;28514;-86
2022/04/29 17:03:32;;;;;;;;;;;;;;;;;;5072622;28;27910;-85
2022/04/29 17:05:57;;;;;;;;;;;;;;;;;;5077280;28;28393;-85
2022/04/29 17:08:23;;;;;;;;;;;;;;;;;;5077051;28;28899;-85
2022/04/29 17:10:48;;;;;;;;;;;;;;;;;;5077255;28;28442;-85
2022/04/29 17:13:13;;;;;;;;;;;;;;;;;;5077382;28;28503;-85
2022/04/29 17:15:39;;;;;;;;;;;;;;;;;;5077221;28;28471;-86
2022/04/29 17:18:04;;;;;;;;;;;;;;;;;;5077608;28;28496;-87
2022/04/29 17:20:29;;;;;;;;;;;;;;;;;;5075113;28;28389;-89